Weather History for KMOX - March, 2013

Change the Weather History Date:

Tuesday, March 5, 2013

  Actual Average Record
Temperature  
Mean Temperature 24 °F -  
Max Temperature 32 °F 25 °F 51 °F (2005)
Min Temperature 17 °F 9 °F -16 °F (1997)
Degree Days  
Heating Degree Days 40    
Moisture  
Dew Point 20 °F    
Average Humidity 87    
Maximum Humidity 100    
Minimum Humidity 64    
Precipitation  
Precipitation 0.02 in - - ()
Sea Level Pressure  
Sea Level Pressure 30.14 in    
Wind  
Wind Speed 14 mph (NNW)    
Max Wind Speed 24 mph    
Max Gust Speed 31 mph    
Visibility 5 miles    
Events Snow    
Averages and records for this station are not official NWS values.
T = Trace of Precipitation, MM = Missing Value Source: NWS Daily Summary

Daily Weather History Graph

Daily Weather History Graph

Search for Another Location

Airport or City:

Trip Planner

Search our weather history database for the weather conditions in past years. The results will help you decide how hot, cold, wet, or windy it might be!

Date:

Astronomy

Mar. 05, 2013 Rise Set
Actual Time 6:54 AM CST 6:16 PM CST
Civil Twilight 6:24 AM CST 6:46 PM CST
Nautical Twilight 5:50 AM CST 7:20 PM CST
Astronomical Twilight 5:16 AM CST 7:55 PM CST
Moon 2:21 AM CST (3/5) 11:43 AM CST (3/5)
Length of Visible Light 12h 21m
Length of Day
11h 22m
Last Quarter, 40% of the Moon is Illuminated
Mar 5
Last Quarter
Mar 11
New
Mar 19
First Quarter
Mar 27
Full
Apr 2
Last Quarter

Hourly Weather History & Observations

Time (CST) Temp. Windchill Dew Point Humidity Pressure Visibility Wind Dir Wind Speed Gust Speed Precip Events Conditions
12:11 AM 24.8 °F 12.9 °F 21.2 °F 86% 2.99 in 5.0 mi SE 13.8 mph - N/A   Overcast
12:31 AM 24.8 °F 14.0 °F 21.2 °F 86% 29.90 in - ESE 11.5 mph - N/A   Overcast
12:43 AM 32.0 °F 24.2 °F 21.2 °F 64% 29.91 in 4.0 mi ESE 9.2 mph - N/A Snow Light Snow
1:11 AM 24.8 °F 12.9 °F 21.2 °F 86% 29.91 in 4.0 mi ESE 13.8 mph - N/A Snow Light Snow
1:31 AM 24.8 °F 14.6 °F 21.2 °F 86% 29.92 in 2.0 mi ESE 10.4 mph - N/A Snow Light Snow
1:51 AM 24.8 °F 15.3 °F 21.2 °F 86% 29.92 in 2.0 mi ESE 9.2 mph - N/A Snow Light Snow
2:31 AM 24.8 °F 14.6 °F 21.2 °F 86% 29.92 in 1.8 mi East 10.4 mph - N/A Snow Light Snow
2:51 AM 24.8 °F 15.3 °F 21.2 °F 86% 29.92 in 2.0 mi East 9.2 mph - N/A Snow Light Snow
3:11 AM 24.8 °F 16.9 °F 21.2 °F 86% 29.92 in 2.0 mi East 6.9 mph - 0.01 in Snow Light Snow
3:31 AM 23.0 °F 15.8 °F 21.2 °F 93% 29.93 in 2.5 mi East 5.8 mph - 0.01 in   Overcast
3:51 AM 23.0 °F 14.7 °F 21.2 °F 93% 29.93 in 2.5 mi East 6.9 mph - 0.01 in Snow Light Snow
4:11 AM 23.0 °F 14.7 °F 21.2 °F 93% 29.94 in 1.8 mi ENE 6.9 mph - N/A Snow Light Snow
4:31 AM 23.0 °F 15.8 °F 21.2 °F 93% 29.95 in 1.5 mi ENE 5.8 mph - N/A Snow Light Snow
4:51 AM 23.0 °F 14.7 °F 21.2 °F 93% 29.96 in 1.2 mi NE 6.9 mph - N/A Snow Light Snow
5:11 AM 23.0 °F 13.9 °F 21.2 °F 93% 29.97 in 1.2 mi NNE 8.1 mph - N/A Snow Light Snow
5:31 AM 23.0 °F 13.1 °F 21.2 °F 93% 29.98 in 1.5 mi North 9.2 mph - N/A Snow Light Snow
5:51 AM 23.0 °F 12.4 °F 21.2 °F 93% 29.99 in 1.8 mi North 10.4 mph - 0.01 in Snow Light Snow
6:11 AM 23.0 °F 11.1 °F 21.2 °F 93% 30.00 in 2.5 mi North 12.7 mph - N/A Snow Light Snow
6:51 AM 21.2 °F 8.9 °F 19.4 °F 93% 30.02 in 4.0 mi North 12.7 mph - N/A Snow Light Snow
7:11 AM 21.2 °F 8.3 °F 21.2 °F 100% 30.03 in 3.0 mi North 13.8 mph - N/A Snow Light Snow
7:31 AM 23.0 °F 11.1 °F 21.2 °F 93% 30.04 in 1.8 mi North 12.7 mph - N/A Snow Light Snow
7:51 AM 23.0 °F 11.7 °F 21.2 °F 93% 30.05 in 3.0 mi North 11.5 mph - N/A Snow Light Snow
8:11 AM 23.0 °F 11.1 °F 21.2 °F 93% 30.06 in 2.0 mi North 12.7 mph - N/A Snow Light Snow
8:31 AM 24.8 °F 12.9 °F 21.2 °F 86% 30.07 in 2.0 mi NNW 13.8 mph - N/A Snow Light Snow
8:51 AM 24.8 °F 13.4 °F 21.2 °F 86% 30.08 in 1.8 mi NNW 12.7 mph - N/A Snow Light Snow
9:11 AM 24.8 °F 12.9 °F 21.2 °F 86% 30.08 in 1.5 mi NNW 13.8 mph - N/A Snow Light Snow
9:31 AM 24.8 °F 12.4 °F 21.2 °F 86% 30.09 in 1.2 mi NNW 15.0 mph - N/A Snow Light Snow
9:51 AM 24.8 °F 12.9 °F 21.2 °F 86% 30.10 in 2.0 mi NNW 13.8 mph - N/A   Overcast
10:11 AM 26.6 °F 14.3 °F 21.2 °F 80% 30.11 in 4.0 mi NNW 16.1 mph - N/A   Mostly Cloudy
10:31 AM 26.6 °F 13.4 °F 23.0 °F 86% 30.11 in 3.0 mi NNW 18.4 mph - N/A   Mostly Cloudy
10:51 AM 26.6 °F 13.1 °F 21.2 °F 80% 30.13 in 3.0 mi NNW 19.6 mph - N/A   Mostly Cloudy
11:11 AM 26.6 °F 13.1 °F 21.2 °F 80% 30.13 in 3.0 mi NNW 19.6 mph - N/A Snow Light Snow
11:31 AM 26.6 °F 12.7 °F 21.2 °F 80% 30.14 in 5.0 mi NNW 20.7 mph - N/A   Clear
11:51 AM 26.6 °F 12.7 °F 21.2 °F 80% 30.14 in 7.0 mi NNW 20.7 mph - N/A   Scattered Clouds
12:11 PM 26.6 °F 13.1 °F 21.2 °F 80% 30.15 in 5.0 mi NNW 19.6 mph - N/A   Haze
12:31 PM 26.6 °F 13.1 °F 21.2 °F 80% 30.15 in 5.0 mi NNW 19.6 mph - N/A   Haze
12:51 PM 26.6 °F 12.4 °F 21.2 °F 80% 30.16 in 5.0 mi NNW 21.9 mph 25.3 mph N/A   Haze
1:11 PM 26.6 °F 12.7 °F 21.2 °F 80% 30.17 in 2.5 mi NNW 20.7 mph - N/A   Overcast
1:31 PM 26.6 °F 12.4 °F 21.2 °F 80% 30.17 in 2.5 mi NNW 21.9 mph 28.8 mph N/A   Overcast
1:51 PM 24.8 °F 9.3 °F 21.2 °F 86% 30.18 in 2.0 mi NNW 24.2 mph 31.1 mph N/A   Overcast
2:11 PM 24.8 °F 10.0 °F 21.2 °F 86% 30.18 in 2.0 mi NNW 21.9 mph 28.8 mph N/A   Overcast
2:31 PM 26.6 °F 12.4 °F 21.2 °F 80% 30.19 in 4.0 mi NNW 21.9 mph - N/A   Overcast
2:51 PM 26.6 °F 12.0 °F 21.2 °F 80% 30.19 in 3.0 mi NNW 23.0 mph - N/A   Haze
3:11 PM 26.6 °F 12.0 °F 21.2 °F 80% 30.20 in 5.0 mi NNW 23.0 mph - N/A   Haze
3:31 PM 24.8 °F 9.6 °F 21.2 °F 86% 30.21 in 5.0 mi NNW 23.0 mph - N/A   Mostly Cloudy
3:51 PM 24.8 °F 10.0 °F 19.4 °F 80% 30.21 in 7.0 mi NNW 21.9 mph 26.5 mph N/A   Mostly Cloudy
4:11 PM 24.8 °F 10.3 °F 19.4 °F 80% 30.22 in 7.0 mi NNW 20.7 mph - N/A   Scattered Clouds
4:31 PM 23.0 °F 8.0 °F 19.4 °F 86% 30.23 in 10.0 mi NNW 20.7 mph - N/A   Mostly Cloudy
4:51 PM 23.0 °F 8.3 °F 19.4 °F 86% 30.24 in 10.0 mi NNW 19.6 mph 27.6 mph N/A   Overcast
5:11 PM 21.2 °F 5.6 °F 19.4 °F 93% 30.25 in 10.0 mi NNW 20.7 mph 25.3 mph N/A   Mostly Cloudy
5:31 PM 21.2 °F 5.6 °F 17.6 °F 86% 30.26 in 10.0 mi NNW 20.7 mph 27.6 mph N/A   Clear
5:51 PM 19.4 °F 3.6 °F 17.6 °F 93% 30.27 in 10.0 mi NNW 19.6 mph 25.3 mph N/A   Clear
6:11 PM 19.4 °F 4.1 °F 15.8 °F 86% 30.27 in 10.0 mi NNW 18.4 mph - N/A   Clear
6:31 PM 19.4 °F 5.0 °F 15.8 °F 86% 30.28 in 10.0 mi NNW 16.1 mph - N/A   Clear
6:51 PM 19.4 °F 5.5 °F 15.8 °F 86% 30.28 in 10.0 mi NNW 15.0 mph - N/A   Clear
7:11 PM 17.6 °F 2.2 °F 15.8 °F 93% 30.29 in 10.0 mi NW 17.3 mph - N/A   Clear
7:31 PM 17.6 °F 2.2 °F 15.8 °F 93% 30.29 in 10.0 mi NW 17.3 mph - N/A   Clear
7:51 PM 17.6 °F 2.2 °F 15.8 °F 93% 30.30 in 10.0 mi NW 17.3 mph - N/A   Clear
8:11 PM 17.6 °F 2.2 °F 15.8 °F 93% 30.31 in 10.0 mi NW 17.3 mph - N/A   Clear
8:31 PM 17.6 °F 2.7 °F 15.8 °F 93% 30.30 in 10.0 mi NW 16.1 mph - N/A   Clear
8:51 PM 19.4 °F 5.0 °F 15.8 °F 86% 30.30 in 10.0 mi NNW 16.1 mph - N/A   Mostly Cloudy
9:11 PM 19.4 °F 6.6 °F 17.6 °F 93% 30.32 in 10.0 mi NNW 12.7 mph - N/A   Overcast
9:31 PM 19.4 °F 6.0 °F 17.6 °F 93% 30.33 in 10.0 mi NW 13.8 mph - N/A   Overcast
9:51 PM 19.4 °F 6.6 °F 17.6 °F 93% 30.33 in 10.0 mi NW 12.7 mph - N/A   Overcast
10:11 PM 19.4 °F 6.0 °F 17.6 °F 93% 30.33 in 10.0 mi NW 13.8 mph - N/A   Overcast
10:31 PM 19.4 °F 6.0 °F 17.6 °F 93% 30.33 in 10.0 mi NW 13.8 mph - N/A   Overcast
10:51 PM 19.4 °F 5.0 °F 17.6 °F 93% 30.33 in 10.0 mi NW 16.1 mph - N/A   Overcast
11:11 PM 19.4 °F 5.0 °F 17.6 °F 93% 30.33 in 10.0 mi NW 16.1 mph - N/A   Overcast
11:31 PM 19.4 °F 5.5 °F 17.6 °F 93% 30.34 in 10.0 mi NW 15.0 mph - N/A   Overcast
11:51 PM 19.4 °F 5.0 °F 15.8 °F 86% 30.34 in 10.0 mi NW 16.1 mph - N/A   Overcast